sensor_id;sensor_type;location;lat;lon;timestamp;P1;durP1;ratioP1;P2;durP2;ratioP2
64295;SDS011;51082;38.236;15.432;2023-04-29T00:00:48;0.28;;;0.25;;
64295;SDS011;51082;38.236;15.432;2023-04-29T00:01:51;0.35;;;0.35;;
64295;SDS011;51082;38.236;15.432;2023-04-29T00:02:52;0.30;;;0.30;;
64295;SDS011;51082;38.236;15.432;2023-04-29T00:03:56;0.10;;;0.10;;
64295;SDS011;51082;38.236;15.432;2023-04-29T00:04:58;0.13;;;0.13;;
64295;SDS011;51082;38.236;15.432;2023-04-29T00:06:04;1.75;;;0.65;;
64295;SDS011;51082;38.236;15.432;2023-04-29T00:07:06;2.00;;;0.80;;
64295;SDS011;51082;38.236;15.432;2023-04-29T00:08:10;1.08;;;0.50;;
64295;SDS011;51082;38.236;15.432;2023-04-29T00:09:13;3.38;;;0.98;;
64295;SDS011;51082;38.236;15.432;2023-04-29T00:10:15;1.08;;;0.30;;
64295;SDS011;51082;38.236;15.432;2023-04-29T00:11:17;0.30;;;0.30;;
64295;SDS011;51082;38.236;15.432;2023-04-29T00:12:20;0.30;;;0.30;;
64295;SDS011;51082;38.236;15.432;2023-04-29T00:13:22;1.00;;;0.40;;
64295;SDS011;51082;38.236;15.432;2023-04-29T00:14:25;0.90;;;0.90;;
64295;SDS011;51082;38.236;15.432;2023-04-29T00:15:27;0.45;;;0.45;;
64295;SDS011;51082;38.236;15.432;2023-04-29T00:16:31;1.55;;;0.77;;
64295;SDS011;51082;38.236;15.432;2023-04-29T00:17:32;0.52;;;0.52;;
64295;SDS011;51082;38.236;15.432;2023-04-29T00:18:36;0.22;;;0.22;;
64295;SDS011;51082;38.236;15.432;2023-04-29T00:19:38;3.10;;;0.47;;
64295;SDS011;51082;38.236;15.432;2023-04-29T00:20:41;0.20;;;0.20;;
64295;SDS011;51082;38.236;15.432;2023-04-29T00:21:43;0.20;;;0.20;;
64295;SDS011;51082;38.236;15.432;2023-04-29T00:22:46;0.30;;;0.30;;
64295;SDS011;51082;38.236;15.432;2023-04-29T00:23:50;1.65;;;0.90;;
64295;SDS011;51082;38.236;15.432;2023-04-29T00:24:53;0.55;;;0.55;;
64295;SDS011;51082;38.236;15.432;2023-04-29T00:25:55;0.77;;;0.47;;
64295;SDS011;51082;38.236;15.432;2023-04-29T00:26:58;0.43;;;0.35;;
64295;SDS011;51082;38.236;15.432;2023-04-29T00:28:02;0.52;;;0.40;;
64295;SDS011;51082;38.236;15.432;2023-04-29T00:29:05;0.30;;;0.30;;
64295;SDS011;51082;38.236;15.432;2023-04-29T00:30:07;0.43;;;0.17;;
64295;SDS011;51082;38.236;15.432;2023-04-29T00:31:11;0.68;;;0.63;;
64295;SDS011;51082;38.236;15.432;2023-04-29T00:32:13;1.00;;;0.32;;
64295;SDS011;51082;38.236;15.432;2023-04-29T00:33:16;0.73;;;0.50;;
64295;SDS011;51082;38.236;15.432;2023-04-29T00:34:18;0.40;;;0.40;;
64295;SDS011;51082;38.236;15.432;2023-04-29T00:35:20;0.45;;;0.30;;
64295;SDS011;51082;38.236;15.432;2023-04-29T00:36:23;0.45;;;0.43;;
64295;SDS011;51082;38.236;15.432;2023-04-29T00:37:26;0.30;;;0.30;;
64295;SDS011;51082;38.236;15.432;2023-04-29T00:38:28;0.38;;;0.38;;
64295;SDS011;51082;38.236;15.432;2023-04-29T00:39:32;0.47;;;0.47;;
64295;SDS011;51082;38.236;15.432;2023-04-29T00:40:34;0.85;;;0.85;;
64295;SDS011;51082;38.236;15.432;2023-04-29T00:41:37;0.40;;;0.15;;
64295;SDS011;51082;38.236;15.432;2023-04-29T00:42:39;0.40;;;0.28;;
64295;SDS011;51082;38.236;15.432;2023-04-29T00:43:43;0.40;;;0.40;;
64295;SDS011;51082;38.236;15.432;2023-04-29T00:44:44;0.80;;;0.45;;
64295;SDS011;51082;38.236;15.432;2023-04-29T00:45:47;0.65;;;0.43;;
64295;SDS011;51082;38.236;15.432;2023-04-29T00:46:50;0.73;;;0.40;;
64295;SDS011;51082;38.236;15.432;2023-04-29T00:47:54;0.15;;;0.13;;
64295;SDS011;51082;38.236;15.432;2023-04-29T00:48:56;0.00;;;0.00;;
64295;SDS011;51082;38.236;15.432;2023-04-29T00:50:00;0.55;;;0.30;;
64295;SDS011;51082;38.236;15.432;2023-04-29T00:51:02;0.30;;;0.30;;
64295;SDS011;51082;38.236;15.432;2023-04-29T00:52:06;1.13;;;0.98;;
64295;SDS011;51082;38.236;15.432;2023-04-29T00:53:08;0.10;;;0.10;;
64295;SDS011;51082;38.236;15.432;2023-04-29T00:54:12;0.08;;;0.08;;
64295;SDS011;51082;38.236;15.432;2023-04-29T00:55:15;0.55;;;0.08;;
64295;SDS011;51082;38.236;15.432;2023-04-29T00:56:19;0.40;;;0.40;;
64295;SDS011;51082;38.236;15.432;2023-04-29T00:57:21;0.30;;;0.30;;
64295;SDS011;51082;38.236;15.432;2023-04-29T00:58:24;0.50;;;0.40;;
64295;SDS011;51082;38.236;15.432;2023-04-29T00:59:32;0.00;;;0.00;;
64295;SDS011;51082;38.236;15.432;2023-04-29T01:00:36;0.50;;;0.50;;
64295;SDS011;51082;38.236;15.432;2023-04-29T01:01:38;0.13;;;0.10;;
64295;SDS011;51082;38.236;15.432;2023-04-29T01:02:41;0.30;;;0.30;;
64295;SDS011;51082;38.236;15.432;2023-04-29T01:03:45;0.30;;;0.30;;
64295;SDS011;51082;38.236;15.432;2023-04-29T01:04:48;0.73;;;0.40;;
64295;SDS011;51082;38.236;15.432;2023-04-29T01:05:50;1.20;;;0.30;;
64295;SDS011;51082;38.236;15.432;2023-04-29T01:07:03;0.40;;;0.40;;
64295;SDS011;51082;38.236;15.432;2023-04-29T01:08:15;0.40;;;0.40;;
64295;SDS011;51082;38.236;15.432;2023-04-29T01:09:28;1.10;;;0.57;;
64295;SDS011;51082;38.236;15.432;2023-04-29T01:10:43;0.10;;;0.10;;
64295;SDS011;51082;38.236;15.432;2023-04-29T01:11:52;0.98;;;0.98;;
64295;SDS011;51082;38.236;15.432;2023-04-29T01:13:08;0.13;;;0.13;;
64295;SDS011;51082;38.236;15.432;2023-04-29T01:14:14;0.65;;;0.45;;
64295;SDS011;51082;38.236;15.432;2023-04-29T01:15:19;0.45;;;0.45;;
64295;SDS011;51082;38.236;15.432;2023-04-29T01:16:24;0.55;;;0.47;;
64295;SDS011;51082;38.236;15.432;2023-04-29T01:17:34;0.45;;;0.30;;
64295;SDS011;51082;38.236;15.432;2023-04-29T01:18:40;0.05;;;0.00;;
64295;SDS011;51082;38.236;15.432;2023-04-29T01:19:46;0.40;;;0.40;;
64295;SDS011;51082;38.236;15.432;2023-04-29T01:20:50;0.35;;;0.30;;
64295;SDS011;51082;38.236;15.432;2023-04-29T01:21:53;0.00;;;0.00;;
64295;SDS011;51082;38.236;15.432;2023-04-29T01:22:55;0.20;;;0.20;;
64295;SDS011;51082;38.236;15.432;2023-04-29T01:24:00;0.38;;;0.38;;
64295;SDS011;51082;38.236;15.432;2023-04-29T01:25:02;0.40;;;0.40;;
64295;SDS011;51082;38.236;15.432;2023-04-29T01:26:05;0.35;;;0.17;;
64295;SDS011;51082;38.236;15.432;2023-04-29T01:27:10;0.65;;;0.35;;
64295;SDS011;51082;38.236;15.432;2023-04-29T01:28:27;0.17;;;0.17;;
64295;SDS011;51082;38.236;15.432;2023-04-29T01:29:41;0.20;;;0.20;;
64295;SDS011;51082;38.236;15.432;2023-04-29T01:30:53;0.85;;;0.25;;
64295;SDS011;51082;38.236;15.432;2023-04-29T01:32:03;0.13;;;0.13;;
64295;SDS011;51082;38.236;15.432;2023-04-29T01:33:11;0.50;;;0.43;;
64295;SDS011;51082;38.236;15.432;2023-04-29T01:34:18;0.22;;;0.22;;
64295;SDS011;51082;38.236;15.432;2023-04-29T01:38:02;0.35;;;0.35;;
64295;SDS011;51082;38.236;15.432;2023-04-29T01:39:23;0.20;;;0.20;;
64295;SDS011;51082;38.236;15.432;2023-04-29T01:40:35;0.28;;;0.28;;
64295;SDS011;51082;38.236;15.432;2023-04-29T01:41:44;3.40;;;0.40;;
64295;SDS011;51082;38.236;15.432;2023-04-29T01:42:55;0.63;;;0.28;;
64295;SDS011;51082;38.236;15.432;2023-04-29T01:44:04;0.17;;;0.10;;
64295;SDS011;51082;38.236;15.432;2023-04-29T01:45:14;1.00;;;0.45;;
64295;SDS011;51082;38.236;15.432;2023-04-29T01:46:18;0.22;;;0.22;;
64295;SDS011;51082;38.236;15.432;2023-04-29T01:47:20;0.40;;;0.40;;
64295;SDS011;51082;38.236;15.432;2023-04-29T01:48:23;0.60;;;0.30;;
64295;SDS011;51082;38.236;15.432;2023-04-29T01:49:25;0.35;;;0.20;;
64295;SDS011;51082;38.236;15.432;2023-04-29T01:50:28;0.10;;;0.10;;
64295;SDS011;51082;38.236;15.432;2023-04-29T01:51:30;6.43;;;0.50;;
64295;SDS011;51082;38.236;15.432;2023-04-29T01:52:33;0.50;;;0.30;;
64295;SDS011;51082;38.236;15.432;2023-04-29T01:53:36;2.38;;;0.82;;
64295;SDS011;51082;38.236;15.432;2023-04-29T01:54:41;0.47;;;0.25;;
64295;SDS011;51082;38.236;15.432;2023-04-29T01:55:43;0.63;;;0.20;;
64295;SDS011;51082;38.236;15.432;2023-04-29T01:56:47;0.45;;;0.30;;
64295;SDS011;51082;38.236;15.432;2023-04-29T01:57:49;0.13;;;0.13;;
64295;SDS011;51082;38.236;15.432;2023-04-29T01:58:52;0.10;;;0.10;;
64295;SDS011;51082;38.236;15.432;2023-04-29T01:59:54;0.50;;;0.40;;
64295;SDS011;51082;38.236;15.432;2023-04-29T02:00:57;0.28;;;0.28;;
64295;SDS011;51082;38.236;15.432;2023-04-29T02:01:58;0.30;;;0.10;;
64295;SDS011;51082;38.236;15.432;2023-04-29T02:03:02;0.10;;;0.10;;
64295;SDS011;51082;38.236;15.432;2023-04-29T02:04:04;0.70;;;0.35;;
64295;SDS011;51082;38.236;15.432;2023-04-29T02:05:07;0.13;;;0.10;;
64295;SDS011;51082;38.236;15.432;2023-04-29T02:06:09;0.00;;;0.00;;
64295;SDS011;51082;38.236;15.432;2023-04-29T02:07:13;0.68;;;0.32;;
64295;SDS011;51082;38.236;15.432;2023-04-29T02:08:15;0.50;;;0.32;;
64295;SDS011;51082;38.236;15.432;2023-04-29T02:09:18;0.60;;;0.30;;
64295;SDS011;51082;38.236;15.432;2023-04-29T02:10:21;0.55;;;0.40;;
64295;SDS011;51082;38.236;15.432;2023-04-29T02:11:24;0.10;;;0.10;;
64295;SDS011;51082;38.236;15.432;2023-04-29T02:12:26;0.68;;;0.50;;
64295;SDS011;51082;38.236;15.432;2023-04-29T02:13:29;0.20;;;0.20;;
64295;SDS011;51082;38.236;15.432;2023-04-29T02:14:31;0.10;;;0.10;;
64295;SDS011;51082;38.236;15.432;2023-04-29T02:15:35;0.03;;;0.03;;
64295;SDS011;51082;38.236;15.432;2023-04-29T02:16:37;0.30;;;0.25;;
64295;SDS011;51082;38.236;15.432;2023-04-29T02:17:43;0.20;;;0.20;;
64295;SDS011;51082;38.236;15.432;2023-04-29T02:18:45;1.77;;;0.35;;
64295;SDS011;51082;38.236;15.432;2023-04-29T02:19:47;0.20;;;0.20;;
64295;SDS011;51082;38.236;15.432;2023-04-29T02:20:49;1.10;;;0.20;;
64295;SDS011;51082;38.236;15.432;2023-04-29T02:21:54;0.20;;;0.20;;
64295;SDS011;51082;38.236;15.432;2023-04-29T02:22:55;0.00;;;0.00;;
64295;SDS011;51082;38.236;15.432;2023-04-29T02:23:58;0.40;;;0.10;;
64295;SDS011;51082;38.236;15.432;2023-04-29T02:25:00;2.30;;;0.75;;
64295;SDS011;51082;38.236;15.432;2023-04-29T02:26:05;0.17;;;0.10;;
64295;SDS011;51082;38.236;15.432;2023-04-29T02:27:07;2.55;;;0.45;;
64295;SDS011;51082;38.236;15.432;2023-04-29T02:28:10;0.22;;;0.20;;
64295;SDS011;51082;38.236;15.432;2023-04-29T02:29:11;1.95;;;0.65;;
64295;SDS011;51082;38.236;15.432;2023-04-29T02:30:17;0.50;;;0.47;;
64295;SDS011;51082;38.236;15.432;2023-04-29T02:31:19;3.50;;;0.73;;
64295;SDS011;51082;38.236;15.432;2023-04-29T02:32:22;0.47;;;0.10;;
64295;SDS011;51082;38.236;15.432;2023-04-29T02:33:25;1.75;;;0.65;;
64295;SDS011;51082;38.236;15.432;2023-04-29T02:34:27;0.20;;;0.10;;
64295;SDS011;51082;38.236;15.432;2023-04-29T02:35:34;0.25;;;0.25;;
64295;SDS011;51082;38.236;15.432;2023-04-29T02:36:35;0.52;;;0.47;;
64295;SDS011;51082;38.236;15.432;2023-04-29T02:37:39;0.52;;;0.52;;
64295;SDS011;51082;38.236;15.432;2023-04-29T02:38:40;0.03;;;0.03;;
64295;SDS011;51082;38.236;15.432;2023-04-29T02:39:43;0.75;;;0.50;;
64295;SDS011;51082;38.236;15.432;2023-04-29T02:40:45;0.25;;;0.25;;
64295;SDS011;51082;38.236;15.432;2023-04-29T02:41:50;5.35;;;0.60;;
64295;SDS011;51082;38.236;15.432;2023-04-29T02:42:54;0.17;;;0.17;;
64295;SDS011;51082;38.236;15.432;2023-04-29T02:43:57;0.30;;;0.30;;
64295;SDS011;51082;38.236;15.432;2023-04-29T02:45:00;2.42;;;0.82;;
64295;SDS011;51082;38.236;15.432;2023-04-29T02:46:03;0.03;;;0.03;;
64295;SDS011;51082;38.236;15.432;2023-04-29T02:47:05;0.32;;;0.32;;
64295;SDS011;51082;38.236;15.432;2023-04-29T02:48:11;0.43;;;0.43;;
64295;SDS011;51082;38.236;15.432;2023-04-29T02:49:13;0.20;;;0.10;;
64295;SDS011;51082;38.236;15.432;2023-04-29T02:50:16;0.35;;;0.22;;
64295;SDS011;51082;38.236;15.432;2023-04-29T02:51:17;0.20;;;0.20;;
64295;SDS011;51082;38.236;15.432;2023-04-29T02:52:20;2.90;;;0.30;;
64295;SDS011;51082;38.236;15.432;2023-04-29T02:53:23;0.32;;;0.32;;
64295;SDS011;51082;38.236;15.432;2023-04-29T02:54:26;0.10;;;0.10;;
64295;SDS011;51082;38.236;15.432;2023-04-29T02:55:27;0.43;;;0.40;;
64295;SDS011;51082;38.236;15.432;2023-04-29T02:56:30;0.32;;;0.32;;
64295;SDS011;51082;38.236;15.432;2023-04-29T02:57:33;0.20;;;0.20;;
64295;SDS011;51082;38.236;15.432;2023-04-29T02:58:39;0.40;;;0.30;;
64295;SDS011;51082;38.236;15.432;2023-04-29T02:59:42;0.13;;;0.13;;
64295;SDS011;51082;38.236;15.432;2023-04-29T03:00:45;0.50;;;0.50;;
64295;SDS011;51082;38.236;15.432;2023-04-29T03:01:46;0.28;;;0.28;;
64295;SDS011;51082;38.236;15.432;2023-04-29T03:02:50;0.43;;;0.43;;
64295;SDS011;51082;38.236;15.432;2023-04-29T03:03:51;0.32;;;0.32;;
64295;SDS011;51082;38.236;15.432;2023-04-29T03:04:54;0.30;;;0.30;;
64295;SDS011;51082;38.236;15.432;2023-04-29T03:05:56;0.10;;;0.10;;
64295;SDS011;51082;38.236;15.432;2023-04-29T03:06:59;0.40;;;0.15;;
64295;SDS011;51082;38.236;15.432;2023-04-29T03:08:01;1.10;;;0.73;;
64295;SDS011;51082;38.236;15.432;2023-04-29T03:09:04;0.50;;;0.50;;
64295;SDS011;51082;38.236;15.432;2023-04-29T03:10:06;0.15;;;0.15;;
64295;SDS011;51082;38.236;15.432;2023-04-29T03:11:11;0.55;;;0.55;;
64295;SDS011;51082;38.236;15.432;2023-04-29T03:12:13;0.43;;;0.38;;
64295;SDS011;51082;38.236;15.432;2023-04-29T03:13:18;0.75;;;0.47;;
64295;SDS011;51082;38.236;15.432;2023-04-29T03:14:20;0.10;;;0.10;;
64295;SDS011;51082;38.236;15.432;2023-04-29T03:15:23;0.30;;;0.10;;
64295;SDS011;51082;38.236;15.432;2023-04-29T03:16:24;0.30;;;0.30;;
64295;SDS011;51082;38.236;15.432;2023-04-29T03:17:28;0.35;;;0.32;;
64295;SDS011;51082;38.236;15.432;2023-04-29T03:18:30;0.20;;;0.05;;
64295;SDS011;51082;38.236;15.432;2023-04-29T03:19:33;0.20;;;0.20;;
64295;SDS011;51082;38.236;15.432;2023-04-29T03:20:35;0.10;;;0.00;;
64295;SDS011;51082;38.236;15.432;2023-04-29T03:21:38;0.38;;;0.22;;
64295;SDS011;51082;38.236;15.432;2023-04-29T03:22:40;1.02;;;0.90;;
64295;SDS011;51082;38.236;15.432;2023-04-29T03:23:43;0.20;;;0.20;;
64295;SDS011;51082;38.236;15.432;2023-04-29T03:24:45;0.93;;;0.52;;
64295;SDS011;51082;38.236;15.432;2023-04-29T03:25:48;1.67;;;0.52;;
64295;SDS011;51082;38.236;15.432;2023-04-29T03:26:49;1.98;;;0.22;;
64295;SDS011;51082;38.236;15.432;2023-04-29T03:27:52;0.70;;;0.43;;
64295;SDS011;51082;38.236;15.432;2023-04-29T03:28:55;0.35;;;0.35;;
64295;SDS011;51082;38.236;15.432;2023-04-29T03:29:59;0.88;;;0.85;;
64295;SDS011;51082;38.236;15.432;2023-04-29T03:31:01;0.20;;;0.20;;
64295;SDS011;51082;38.236;15.432;2023-04-29T03:32:05;0.10;;;0.10;;
64295;SDS011;51082;38.236;15.432;2023-04-29T03:33:07;0.80;;;0.57;;
64295;SDS011;51082;38.236;15.432;2023-04-29T03:34:10;0.10;;;0.10;;
64295;SDS011;51082;38.236;15.432;2023-04-29T03:35:12;0.40;;;0.40;;
64295;SDS011;51082;38.236;15.432;2023-04-29T03:36:14;0.13;;;0.10;;
64295;SDS011;51082;38.236;15.432;2023-04-29T03:37:17;0.43;;;0.35;;
64295;SDS011;51082;38.236;15.432;2023-04-29T03:38:19;0.13;;;0.13;;
64295;SDS011;51082;38.236;15.432;2023-04-29T03:39:22;0.10;;;0.10;;
64295;SDS011;51082;38.236;15.432;2023-04-29T03:40:24;0.47;;;0.43;;
64295;SDS011;51082;38.236;15.432;2023-04-29T03:41:27;0.30;;;0.22;;
64295;SDS011;51082;38.236;15.432;2023-04-29T03:42:29;0.13;;;0.13;;
64295;SDS011;51082;38.236;15.432;2023-04-29T03:43:32;0.00;;;0.00;;
64295;SDS011;51082;38.236;15.432;2023-04-29T03:44:35;0.30;;;0.30;;
64295;SDS011;51082;38.236;15.432;2023-04-29T03:45:38;0.98;;;0.95;;
64295;SDS011;51082;38.236;15.432;2023-04-29T03:46:40;0.43;;;0.43;;
64295;SDS011;51082;38.236;15.432;2023-04-29T03:47:43;1.90;;;0.32;;
64295;SDS011;51082;38.236;15.432;2023-04-29T03:48:45;0.28;;;0.28;;
64295;SDS011;51082;38.236;15.432;2023-04-29T03:49:47;0.47;;;0.40;;
64295;SDS011;51082;38.236;15.432;2023-04-29T03:50:49;0.00;;;0.00;;
64295;SDS011;51082;38.236;15.432;2023-04-29T03:51:53;0.52;;;0.20;;
64295;SDS011;51082;38.236;15.432;2023-04-29T03:52:54;0.13;;;0.13;;
64295;SDS011;51082;38.236;15.432;2023-04-29T03:53:58;0.75;;;0.47;;
64295;SDS011;51082;38.236;15.432;2023-04-29T03:55:00;1.08;;;0.52;;
64295;SDS011;51082;38.236;15.432;2023-04-29T03:56:03;0.28;;;0.20;;
64295;SDS011;51082;38.236;15.432;2023-04-29T03:57:05;0.20;;;0.20;;
64295;SDS011;51082;38.236;15.432;2023-04-29T03:58:08;0.52;;;0.28;;
64295;SDS011;51082;38.236;15.432;2023-04-29T03:59:10;0.13;;;0.10;;
64295;SDS011;51082;38.236;15.432;2023-04-29T04:00:15;0.20;;;0.20;;
64295;SDS011;51082;38.236;15.432;2023-04-29T04:01:17;0.17;;;0.17;;
64295;SDS011;51082;38.236;15.432;2023-04-29T04:02:19;0.20;;;0.17;;
64295;SDS011;51082;38.236;15.432;2023-04-29T04:03:21;0.10;;;0.10;;
64295;SDS011;51082;38.236;15.432;2023-04-29T04:04:25;0.32;;;0.22;;
64295;SDS011;51082;38.236;15.432;2023-04-29T04:05:27;0.22;;;0.22;;
64295;SDS011;51082;38.236;15.432;2023-04-29T04:06:30;0.20;;;0.20;;
64295;SDS011;51082;38.236;15.432;2023-04-29T04:07:32;0.20;;;0.20;;
64295;SDS011;51082;38.236;15.432;2023-04-29T04:08:35;0.10;;;0.10;;
64295;SDS011;51082;38.236;15.432;2023-04-29T04:09:37;1.38;;;0.40;;
64295;SDS011;51082;38.236;15.432;2023-04-29T04:10:40;1.60;;;1.08;;
64295;SDS011;51082;38.236;15.432;2023-04-29T04:11:41;0.43;;;0.25;;
64295;SDS011;51082;38.236;15.432;2023-04-29T04:12:44;0.28;;;0.28;;
64295;SDS011;51082;38.236;15.432;2023-04-29T04:13:46;1.67;;;0.70;;
64295;SDS011;51082;38.236;15.432;2023-04-29T04:14:49;0.10;;;0.10;;
64295;SDS011;51082;38.236;15.432;2023-04-29T04:15:52;0.20;;;0.15;;
64295;SDS011;51082;38.236;15.432;2023-04-29T04:16:55;0.63;;;0.30;;
64295;SDS011;51082;38.236;15.432;2023-04-29T04:17:57;0.38;;;0.20;;
64295;SDS011;51082;38.236;15.432;2023-04-29T04:18:59;0.20;;;0.20;;
64295;SDS011;51082;38.236;15.432;2023-04-29T04:20:01;0.95;;;0.55;;
64295;SDS011;51082;38.236;15.432;2023-04-29T04:21:04;0.10;;;0.10;;
64295;SDS011;51082;38.236;15.432;2023-04-29T04:22:06;2.15;;;0.70;;
64295;SDS011;51082;38.236;15.432;2023-04-29T04:23:09;1.00;;;0.57;;
64295;SDS011;51082;38.236;15.432;2023-04-29T04:24:11;1.35;;;0.77;;
64295;SDS011;51082;38.236;15.432;2023-04-29T04:25:13;0.65;;;0.47;;
64295;SDS011;51082;38.236;15.432;2023-04-29T04:26:15;0.43;;;0.22;;
64295;SDS011;51082;38.236;15.432;2023-04-29T04:27:20;0.20;;;0.13;;
64295;SDS011;51082;38.236;15.432;2023-04-29T04:28:21;0.32;;;0.25;;
64295;SDS011;51082;38.236;15.432;2023-04-29T04:29:24;0.80;;;0.70;;
64295;SDS011;51082;38.236;15.432;2023-04-29T04:30:26;4.13;;;1.55;;
64295;SDS011;51082;38.236;15.432;2023-04-29T04:31:30;1.08;;;0.98;;
64295;SDS011;51082;38.236;15.432;2023-04-29T04:32:32;3.97;;;2.08;;
64295;SDS011;51082;38.236;15.432;2023-04-29T04:33:35;11.20;;;4.28;;
64295;SDS011;51082;38.236;15.432;2023-04-29T04:34:36;13.40;;;6.22;;
64295;SDS011;51082;38.236;15.432;2023-04-29T04:35:40;14.23;;;5.18;;
64295;SDS011;51082;38.236;15.432;2023-04-29T04:36:42;11.88;;;5.57;;
64295;SDS011;51082;38.236;15.432;2023-04-29T04:37:45;8.38;;;5.65;;
64295;SDS011;51082;38.236;15.432;2023-04-29T04:38:47;10.32;;;5.78;;
64295;SDS011;51082;38.236;15.432;2023-04-29T04:39:49;7.43;;;4.47;;
64295;SDS011;51082;38.236;15.432;2023-04-29T04:40:51;5.35;;;4.35;;
64295;SDS011;51082;38.236;15.432;2023-04-29T04:41:54;11.48;;;5.97;;
64295;SDS011;51082;38.236;15.432;2023-04-29T04:42:55;12.77;;;5.55;;
64295;SDS011;51082;38.236;15.432;2023-04-29T04:43:58;6.65;;;4.57;;
64295;SDS011;51082;38.236;15.432;2023-04-29T04:45:00;8.93;;;4.15;;
64295;SDS011;51082;38.236;15.432;2023-04-29T04:46:08;3.83;;;3.13;;
64295;SDS011;51082;38.236;15.432;2023-04-29T04:47:12;3.92;;;2.85;;
64295;SDS011;51082;38.236;15.432;2023-04-29T04:48:15;4.50;;;2.75;;
64295;SDS011;51082;38.236;15.432;2023-04-29T04:49:17;3.42;;;2.35;;
64295;SDS011;51082;38.236;15.432;2023-04-29T04:50:20;5.63;;;3.47;;
64295;SDS011;51082;38.236;15.432;2023-04-29T04:51:21;6.15;;;2.78;;
64295;SDS011;51082;38.236;15.432;2023-04-29T04:52:24;2.33;;;2.13;;
64295;SDS011;51082;38.236;15.432;2023-04-29T04:53:26;3.35;;;2.08;;
64295;SDS011;51082;38.236;15.432;2023-04-29T04:54:29;2.70;;;1.50;;
64295;SDS011;51082;38.236;15.432;2023-04-29T04:55:31;3.45;;;2.22;;
64295;SDS011;51082;38.236;15.432;2023-04-29T04:56:34;2.30;;;1.65;;
64295;SDS011;51082;38.236;15.432;2023-04-29T04:57:37;1.58;;;0.85;;
64295;SDS011;51082;38.236;15.432;2023-04-29T04:58:41;1.58;;;0.98;;
64295;SDS011;51082;38.236;15.432;2023-04-29T04:59:42;1.90;;;1.45;;
64295;SDS011;51082;38.236;15.432;2023-04-29T05:00:45;2.90;;;2.22;;
64295;SDS011;51082;38.236;15.432;2023-04-29T05:01:47;3.33;;;1.75;;
64295;SDS011;51082;38.236;15.432;2023-04-29T05:02:52;4.07;;;2.08;;
64295;SDS011;51082;38.236;15.432;2023-04-29T05:03:54;4.35;;;1.88;;
64295;SDS011;51082;38.236;15.432;2023-04-29T05:04:58;3.83;;;1.83;;
64295;SDS011;51082;38.236;15.432;2023-04-29T05:06:02;3.28;;;1.88;;
64295;SDS011;51082;38.236;15.432;2023-04-29T05:07:05;5.25;;;1.98;;
64295;SDS011;51082;38.236;15.432;2023-04-29T05:08:06;2.88;;;1.73;;
64295;SDS011;51082;38.236;15.432;2023-04-29T05:09:12;0.73;;;0.73;;
64295;SDS011;51082;38.236;15.432;2023-04-29T05:10:14;1.58;;;1.00;;
64295;SDS011;51082;38.236;15.432;2023-04-29T05:11:17;1.75;;;1.13;;
64295;SDS011;51082;38.236;15.432;2023-04-29T05:12:20;1.02;;;0.93;;
64295;SDS011;51082;38.236;15.432;2023-04-29T05:13:25;1.52;;;1.10;;
64295;SDS011;51082;38.236;15.432;2023-04-29T05:14:26;1.20;;;0.57;;
64295;SDS011;51082;38.236;15.432;2023-04-29T05:15:29;6.50;;;0.93;;
64295;SDS011;51082;38.236;15.432;2023-04-29T05:16:32;1.38;;;0.55;;
64295;SDS011;51082;38.236;15.432;2023-04-29T05:17:35;1.48;;;0.52;;
64295;SDS011;51082;38.236;15.432;2023-04-29T05:18:38;1.55;;;0.70;;
64295;SDS011;51082;38.236;15.432;2023-04-29T05:19:41;0.60;;;0.60;;
64295;SDS011;51082;38.236;15.432;2023-04-29T05:20:42;1.60;;;0.70;;
64295;SDS011;51082;38.236;15.432;2023-04-29T05:21:45;0.50;;;0.40;;
64295;SDS011;51082;38.236;15.432;2023-04-29T05:22:47;0.45;;;0.45;;
64295;SDS011;51082;38.236;15.432;2023-04-29T05:23:50;1.90;;;1.38;;
64295;SDS011;51082;38.236;15.432;2023-04-29T05:24:52;1.02;;;0.85;;
64295;SDS011;51082;38.236;15.432;2023-04-29T05:26:00;1.23;;;1.15;;
64295;SDS011;51082;38.236;15.432;2023-04-29T05:27:03;1.02;;;0.60;;
64295;SDS011;51082;38.236;15.432;2023-04-29T05:28:06;0.80;;;0.60;;
64295;SDS011;51082;38.236;15.432;2023-04-29T05:29:08;0.30;;;0.30;;
64295;SDS011;51082;38.236;15.432;2023-04-29T05:30:10;0.47;;;0.47;;
64295;SDS011;51082;38.236;15.432;2023-04-29T05:31:16;2.10;;;1.20;;
64295;SDS011;51082;38.236;15.432;2023-04-29T05:32:18;0.22;;;0.20;;
64295;SDS011;51082;38.236;15.432;2023-04-29T05:33:23;0.55;;;0.55;;
64295;SDS011;51082;38.236;15.432;2023-04-29T05:34:26;1.95;;;0.63;;
64295;SDS011;51082;38.236;15.432;2023-04-29T05:35:29;0.88;;;0.50;;
64295;SDS011;51082;38.236;15.432;2023-04-29T05:36:35;1.08;;;0.65;;
64295;SDS011;51082;38.236;15.432;2023-04-29T05:37:38;0.40;;;0.20;;
64295;SDS011;51082;38.236;15.432;2023-04-29T05:38:41;0.52;;;0.40;;
64295;SDS011;51082;38.236;15.432;2023-04-29T05:39:53;0.10;;;0.10;;
64295;SDS011;51082;38.236;15.432;2023-04-29T05:40:55;2.05;;;0.10;;
64295;SDS011;51082;38.236;15.432;2023-04-29T05:42:04;0.80;;;0.52;;
64295;SDS011;51082;38.236;15.432;2023-04-29T05:43:06;0.10;;;0.10;;
64295;SDS011;51082;38.236;15.432;2023-04-29T05:44:12;0.52;;;0.30;;
64295;SDS011;51082;38.236;15.432;2023-04-29T05:45:22;0.25;;;0.25;;
64295;SDS011;51082;38.236;15.432;2023-04-29T05:46:25;0.47;;;0.43;;
64295;SDS011;51082;38.236;15.432;2023-04-29T05:47:29;0.57;;;0.20;;
64295;SDS011;51082;38.236;15.432;2023-04-29T05:48:32;0.57;;;0.52;;
64295;SDS011;51082;38.236;15.432;2023-04-29T05:49:35;1.52;;;0.60;;
64295;SDS011;51082;38.236;15.432;2023-04-29T05:50:37;0.73;;;0.45;;
64295;SDS011;51082;38.236;15.432;2023-04-29T05:51:41;0.82;;;0.30;;
64295;SDS011;51082;38.236;15.432;2023-04-29T05:52:47;0.75;;;0.73;;
64295;SDS011;51082;38.236;15.432;2023-04-29T05:53:51;0.43;;;0.43;;
64295;SDS011;51082;38.236;15.432;2023-04-29T05:54:54;1.60;;;0.47;;
64295;SDS011;51082;38.236;15.432;2023-04-29T05:55:57;0.38;;;0.28;;
64295;SDS011;51082;38.236;15.432;2023-04-29T05:57:04;0.40;;;0.40;;
64295;SDS011;51082;38.236;15.432;2023-04-29T05:58:06;0.45;;;0.45;;
64295;SDS011;51082;38.236;15.432;2023-04-29T05:59:09;0.38;;;0.38;;
64295;SDS011;51082;38.236;15.432;2023-04-29T06:00:11;0.40;;;0.30;;
64295;SDS011;51082;38.236;15.432;2023-04-29T06:01:15;0.20;;;0.20;;
64295;SDS011;51082;38.236;15.432;2023-04-29T06:02:17;0.40;;;0.30;;
64295;SDS011;51082;38.236;15.432;2023-04-29T06:03:20;1.58;;;0.80;;
64295;SDS011;51082;38.236;15.432;2023-04-29T06:04:22;2.95;;;1.33;;
64295;SDS011;51082;38.236;15.432;2023-04-29T06:05:27;1.13;;;1.02;;
64295;SDS011;51082;38.236;15.432;2023-04-29T06:06:29;2.03;;;0.70;;
64295;SDS011;51082;38.236;15.432;2023-04-29T06:07:38;1.63;;;1.17;;
64295;SDS011;51082;38.236;15.432;2023-04-29T06:08:40;0.40;;;0.40;;
64295;SDS011;51082;38.236;15.432;2023-04-29T06:09:43;0.43;;;0.43;;
64295;SDS011;51082;38.236;15.432;2023-04-29T06:10:45;2.45;;;0.50;;
64295;SDS011;51082;38.236;15.432;2023-04-29T06:11:48;0.43;;;0.43;;
64295;SDS011;51082;38.236;15.432;2023-04-29T06:12:50;2.13;;;0.95;;
64295;SDS011;51082;38.236;15.432;2023-04-29T06:13:55;1.20;;;0.90;;
64295;SDS011;51082;38.236;15.432;2023-04-29T06:14:58;2.40;;;1.05;;
64295;SDS011;51082;38.236;15.432;2023-04-29T06:16:00;0.73;;;0.70;;
64295;SDS011;51082;38.236;15.432;2023-04-29T06:17:04;2.10;;;1.10;;
64295;SDS011;51082;38.236;15.432;2023-04-29T06:18:08;0.80;;;0.65;;
64295;SDS011;51082;38.236;15.432;2023-04-29T06:19:11;1.00;;;0.90;;